TimeEST,TemperatureF,Dew PointF,Humidity,Sea Level PressureIn,VisibilityMPH,Wind Direction,Wind SpeedMPH,Gust SpeedMPH,PrecipitationIn,Events,Conditions,WindDirDegrees,DateUTC
12:39 AM,23.0,14.0,68,30.23,10.0,SW,8.1,-,N/A,,Mostly Cloudy,230,2013-01-05 05:39:00
12:56 AM,23.0,15.1,72,30.32,10.0,SW,5.8,-,N/A,,Overcast,230,2013-01-05 05:56:00
1:56 AM,23.0,16.2,75,30.34,10.0,WSW,8.1,-,N/A,,Overcast,240,2013-01-05 06:56:00
2:56 AM,24.1,16.2,72,30.36,10.0,WSW,5.8,-,N/A,,Overcast,240,2013-01-05 07:56:00
3:56 AM,24.1,16.2,72,30.38,10.0,SW,8.1,-,N/A,,Overcast,220,2013-01-05 08:56:00
4:56 AM,24.1,17.1,75,30.38,10.0,SW,5.8,-,N/A,,Overcast,220,2013-01-05 09:56:00
5:56 AM,24.1,17.1,75,30.40,10.0,SSW,4.6,-,N/A,,Overcast,210,2013-01-05 10:56:00
6:56 AM,24.1,18.1,78,30.41,10.0,Calm,Calm,-,N/A,,Overcast,0,2013-01-05 11:56:00
7:56 AM,24.1,18.1,78,30.42,10.0,Variable,5.8,-,N/A,,Overcast,0,2013-01-05 12:56:00
8:56 AM,25.2,18.1,75,30.45,10.0,SSW,5.8,-,N/A,,Overcast,200,2013-01-05 13:56:00
9:56 AM,25.2,19.0,78,30.46,9.0,SW,9.2,-,N/A,,Overcast,220,2013-01-05 14:56:00
10:56 AM,26.1,19.0,75,30.44,10.0,SSW,6.9,-,N/A,,Overcast,200,2013-01-05 15:56:00
11:18 AM,26.6,19.4,74,30.33,10.0,SSW,6.9,-,N/A,,Overcast,210,2013-01-05 16:18:00
11:56 AM,29.1,20.1,69,30.41,10.0,Variable,6.9,-,N/A,,Mostly Cloudy,0,2013-01-05 16:56:00
12:15 PM,30.2,19.4,64,30.31,10.0,SW,6.9,-,N/A,,Scattered Clouds,220,2013-01-05 17:15:00
12:56 PM,32.0,20.1,62,30.37,10.0,Variable,5.8,-,N/A,,Clear,0,2013-01-05 17:56:00
2:56 PM,34.0,21.0,59,30.32,10.0,Variable,6.9,-,N/A,,Partly Cloudy,0,2013-01-05 19:56:00
3:56 PM,32.9,21.0,62,30.31,10.0,SSW,5.8,-,N/A,,Clear,210,2013-01-05 20:56:00
4:56 PM,32.0,20.1,62,30.29,10.0,Calm,Calm,-,N/A,,Clear,0,2013-01-05 21:56:00
5:56 PM,32.0,21.0,64,30.28,10.0,Variable,3.5,-,N/A,,Partly Cloudy,0,2013-01-05 22:56:00
7:56 PM,32.0,21.0,64,30.27,10.0,Calm,Calm,-,N/A,,Mostly Cloudy,0,2013-01-06 00:56:00
8:56 PM,32.0,22.1,67,30.25,10.0,Calm,Calm,-,N/A,,Partly Cloudy,0,2013-01-06 01:56:00
9:56 PM,32.0,22.1,67,30.23,10.0,Calm,Calm,-,N/A,,Overcast,0,2013-01-06 02:56:00
10:56 PM,32.0,22.1,67,30.23,10.0,SW,5.8,-,N/A,,Overcast,220,2013-01-06 03:56:00
11:56 PM,32.0,23.0,69,30.20,10.0,Variable,4.6,-,N/A,,Overcast,0,2013-01-06 04:56:00